Time;durP1;ratioP1;P1;durP2;ratioP2;P2;SDS_P1;SDS_P2;PMS_P1;PMS_P2;Temp;Humidity;BMP_temperature;BMP_pressure;BME280_temperature;BME280_humidity;BME280_pressure;Samples;Min_cycle;Max_cycle;Signal;HPM_P1;HPM_P2
2020/12/27 00:00:29;;;;;;;1.40;1.30;;;6.20;98.90;;;;;;2104736;28;20020;-74
2020/12/27 00:01:30;;;;;;;2.95;1.70;;;6.20;98.90;;;;;;2104087;28;20069;-75
2020/12/27 00:02:30;;;;;;;2.45;1.80;;;6.30;99.00;;;;;;2104334;28;20038;-74
2020/12/27 00:03:31;;;;;;;1.73;1.55;;;6.20;98.90;;;;;;2104237;28;20035;-73
2020/12/27 00:04:32;;;;;;;1.60;1.30;;;6.20;98.90;;;;;;2104848;28;20020;-73
2020/12/27 00:05:34;;;;;;;1.60;1.50;;;6.20;98.90;;;;;;2104161;28;20063;-74
2020/12/27 00:06:34;;;;;;;1.60;1.50;;;6.20;98.90;;;;;;2096139;28;20025;-73
2020/12/27 00:07:36;;;;;;;1.45;1.35;;;6.30;98.80;;;;;;2103771;28;20484;-74
2020/12/27 00:08:36;;;;;;;1.48;1.38;;;6.20;98.80;;;;;;2104329;28;20032;-75
2020/12/27 00:09:42;;;;;;;1.55;1.45;;;6.20;98.90;;;;;;2103897;28;20016;-75
2020/12/27 00:10:42;;;;;;;1.60;1.35;;;6.30;98.90;;;;;;2105075;28;20028;-74
2020/12/27 00:11:43;;;;;;;2.22;1.27;;;6.30;98.90;;;;;;2106440;28;20020;-74
2020/12/27 00:12:43;;;;;;;1.70;1.45;;;6.30;98.70;;;;;;2106292;28;20029;-75
2020/12/27 00:13:44;;;;;;;1.80;1.70;;;6.30;98.80;;;;;;2105812;28;20119;-73
2020/12/27 00:14:44;;;;;;;1.80;1.40;;;6.30;98.80;;;;;;2106465;28;20028;-74
2020/12/27 00:15:45;;;;;;;1.95;1.60;;;6.30;98.70;;;;;;2106408;28;20035;-74
2020/12/27 00:16:45;;;;;;;1.40;1.30;;;6.30;98.80;;;;;;2106451;28;20024;-73
2020/12/27 00:17:46;;;;;;;1.50;1.40;;;6.30;98.80;;;;;;2106262;28;20504;-74
2020/12/27 00:18:46;;;;;;;1.55;1.45;;;6.30;98.80;;;;;;2106155;28;20020;-73
2020/12/27 00:19:47;;;;;;;1.60;1.50;;;6.30;98.80;;;;;;2106133;28;20089;-73
2020/12/27 00:20:47;;;;;;;2.72;1.80;;;6.30;98.70;;;;;;2106644;28;20411;-74
2020/12/27 00:21:48;;;;;;;3.33;1.50;;;6.30;98.70;;;;;;2106270;28;20028;-74
2020/12/27 00:22:49;;;;;;;2.58;1.52;;;6.30;98.50;;;;;;2106254;28;20058;-73
2020/12/27 00:23:50;;;;;;;1.70;1.60;;;6.30;98.60;;;;;;2105988;28;20065;-74
2020/12/27 00:24:50;;;;;;;1.35;1.25;;;6.30;98.60;;;;;;2106417;28;20028;-75
2020/12/27 00:25:51;;;;;;;1.33;1.23;;;6.30;98.70;;;;;;2105982;28;20451;-75
2020/12/27 00:26:51;;;;;;;1.70;1.30;;;6.30;98.70;;;;;;2106295;28;20108;-74
2020/12/27 00:27:52;;;;;;;1.42;1.33;;;6.30;98.70;;;;;;2106103;28;20024;-73
2020/12/27 00:28:53;;;;;;;1.55;1.40;;;6.30;98.60;;;;;;2106282;28;20030;-74
2020/12/27 00:29:53;;;;;;;2.70;1.85;;;6.30;98.70;;;;;;2105709;28;20051;-73
2020/12/27 00:30:54;;;;;;;3.22;1.45;;;6.30;98.60;;;;;;2097151;28;20025;-74
2020/12/27 00:31:55;;;;;;;1.65;1.55;;;6.30;98.60;;;;;;2105230;28;20031;-74
2020/12/27 00:32:56;;;;;;;1.48;1.38;;;6.30;98.60;;;;;;2097186;28;20021;-74
2020/12/27 00:33:56;;;;;;;1.83;1.73;;;6.30;98.60;;;;;;2105327;28;20051;-74
2020/12/27 00:34:59;;;;;;;1.77;1.40;;;6.30;98.50;;;;;;2106129;28;20020;-74
2020/12/27 00:36:01;;;;;;;2.10;2.00;;;6.30;98.50;;;;;;2106223;28;20107;-73
2020/12/27 00:37:01;;;;;;;1.83;1.58;;;6.30;98.40;;;;;;2105700;28;20468;-74
2020/12/27 00:38:02;;;;;;;1.52;1.42;;;6.30;98.40;;;;;;2105486;28;20048;-74
2020/12/27 00:39:06;;;;;;;1.95;1.52;;;6.30;98.50;;;;;;2105692;28;20055;-74
2020/12/27 00:40:06;;;;;;;1.75;1.40;;;6.30;98.60;;;;;;2105576;28;20082;-74
2020/12/27 00:41:07;;;;;;;1.58;1.48;;;6.30;98.50;;;;;;2105695;28;20111;-74
2020/12/27 00:42:07;;;;;;;2.38;1.45;;;6.30;98.50;;;;;;2105625;28;20369;-73
2020/12/27 00:43:08;;;;;;;1.98;1.38;;;6.30;98.50;;;;;;2104932;28;20112;-74
2020/12/27 00:44:09;;;;;;;1.60;1.50;;;6.30;98.50;;;;;;2106029;28;20169;-74
2020/12/27 00:45:09;;;;;;;1.92;1.40;;;6.30;98.50;;;;;;2105486;28;20334;-74
2020/12/27 00:46:10;;;;;;;1.73;1.45;;;6.30;98.50;;;;;;2105593;28;20126;-74
2020/12/27 00:47:10;;;;;;;2.03;1.40;;;6.30;98.50;;;;;;2106054;28;20031;-73
2020/12/27 00:48:11;;;;;;;2.20;1.13;;;6.30;98.60;;;;;;2105493;28;20352;-73
2020/12/27 00:49:12;;;;;;;1.58;1.48;;;6.30;98.60;;;;;;2105462;28;20070;-74
2020/12/27 00:50:12;;;;;;;1.60;1.50;;;6.20;98.50;;;;;;2106044;28;20056;-74
2020/12/27 00:51:13;;;;;;;1.42;1.33;;;6.30;98.50;;;;;;2105937;28;20028;-74
2020/12/27 00:52:13;;;;;;;1.50;1.40;;;6.20;98.50;;;;;;2106255;28;20027;-74
2020/12/27 00:53:14;;;;;;;1.38;1.20;;;6.20;98.50;;;;;;2105721;28;20069;-73
2020/12/27 00:54:14;;;;;;;2.92;1.70;;;6.20;98.50;;;;;;2106356;28;20031;-74
2020/12/27 00:55:15;;;;;;;1.20;1.10;;;6.20;98.50;;;;;;2105843;28;20028;-74
2020/12/27 00:56:16;;;;;;;2.35;1.55;;;6.20;98.50;;;;;;2106084;28;20027;-74
2020/12/27 00:57:16;;;;;;;1.27;1.20;;;6.20;98.40;;;;;;2105907;28;20055;-74
2020/12/27 00:58:17;;;;;;;1.30;1.20;;;6.20;98.50;;;;;;2106121;28;20071;-74
2020/12/27 00:59:18;;;;;;;1.70;1.33;;;6.20;98.50;;;;;;2105419;28;20052;-73
2020/12/27 01:00:19;;;;;;;1.40;1.27;;;6.30;98.40;;;;;;2097485;28;20020;-74
2020/12/27 01:01:19;;;;;;;1.50;1.10;;;6.20;98.40;;;;;;2105494;28;20089;-75
2020/12/27 01:02:20;;;;;;;2.80;1.30;;;6.20;98.40;;;;;;2105404;28;20024;-74
2020/12/27 01:03:23;;;;;;;2.08;1.25;;;6.20;98.30;;;;;;2104918;28;20028;-74
2020/12/27 01:04:23;;;;;;;1.90;1.38;;;6.20;98.30;;;;;;2106331;28;20073;-74
2020/12/27 01:05:24;;;;;;;1.95;1.20;;;6.20;98.30;;;;;;2105322;28;20028;-75
2020/12/27 01:06:28;;;;;;;1.67;1.40;;;6.20;98.30;;;;;;2105428;28;20095;-74
2020/12/27 01:07:29;;;;;;;1.25;1.08;;;6.20;98.20;;;;;;2105961;28;20226;-74
2020/12/27 01:08:30;;;;;;;1.00;0.80;;;6.20;98.30;;;;;;2106044;28;20024;-74
2020/12/27 01:09:30;;;;;;;1.67;1.10;;;6.20;98.30;;;;;;2105806;28;20027;-74
2020/12/27 01:10:31;;;;;;;2.35;1.30;;;6.20;98.40;;;;;;2105200;28;20027;-74
2020/12/27 01:11:32;;;;;;;2.42;1.27;;;6.20;98.40;;;;;;2105219;28;20035;-74
2020/12/27 01:12:32;;;;;;;1.80;1.40;;;6.20;98.30;;;;;;2105982;28;20067;-73
2020/12/27 01:13:33;;;;;;;1.42;1.33;;;6.20;98.30;;;;;;2105561;28;20028;-74
2020/12/27 01:14:34;;;;;;;1.38;1.27;;;6.20;98.40;;;;;;2105937;28;20451;-75
2020/12/27 01:15:38;;;;;;;1.42;1.33;;;6.20;98.30;;;;;;2105826;28;20027;-74
2020/12/27 01:16:39;;;;;;;1.20;1.10;;;6.20;98.30;;;;;;2106179;28;20025;-74
2020/12/27 01:17:39;;;;;;;1.42;1.23;;;6.20;98.30;;;;;;2105672;28;20092;-74
2020/12/27 01:18:42;;;;;;;1.60;1.50;;;6.20;98.30;;;;;;2105351;28;20058;-74
2020/12/27 01:19:43;;;;;;;1.15;1.05;;;6.20;98.10;;;;;;2105166;28;20028;-74
2020/12/27 01:20:43;;;;;;;1.45;1.10;;;6.20;98.20;;;;;;2105853;28;20363;-75
2020/12/27 01:21:44;;;;;;;1.10;1.10;;;6.20;98.20;;;;;;2105112;28;20024;-75
2020/12/27 01:22:44;;;;;;;1.40;1.23;;;6.20;98.20;;;;;;2105988;28;20112;-74
2020/12/27 01:23:45;;;;;;;1.30;1.20;;;6.20;98.30;;;;;;2105100;28;20032;-75
2020/12/27 01:24:46;;;;;;;1.70;1.10;;;6.20;98.20;;;;;;2096714;28;20029;-73
2020/12/27 01:25:47;;;;;;;1.13;1.00;;;6.20;98.10;;;;;;2105226;28;20020;-75
2020/12/27 01:26:48;;;;;;;1.50;1.33;;;6.20;98.10;;;;;;2105700;28;20499;-75
2020/12/27 01:27:48;;;;;;;1.15;1.00;;;6.20;98.10;;;;;;2105713;28;20034;-75
2020/12/27 01:28:49;;;;;;;1.02;1.00;;;6.20;98.20;;;;;;2105642;28;20024;-75
2020/12/27 01:29:50;;;;;;;1.63;1.23;;;6.20;98.20;;;;;;2105889;28;20141;-75
2020/12/27 01:30:50;;;;;;;1.52;1.25;;;6.20;98.20;;;;;;2105560;28;20076;-74
2020/12/27 01:31:51;;;;;;;2.78;1.20;;;6.20;98.10;;;;;;2105669;28;20101;-74
2020/12/27 01:32:51;;;;;;;1.13;1.10;;;6.20;98.20;;;;;;2105893;28;20031;-75
2020/12/27 01:33:54;;;;;;;1.02;1.02;;;6.20;98.20;;;;;;2105277;28;20020;-74
2020/12/27 01:34:54;;;;;;;1.38;1.20;;;6.20;98.10;;;;;;2105791;28;20551;-74
2020/12/27 01:35:55;;;;;;;1.52;1.10;;;6.20;98.10;;;;;;2106111;28;20020;-73
2020/12/27 01:36:55;;;;;;;1.23;1.13;;;6.20;98.10;;;;;;2105479;28;20032;-76
2020/12/27 01:37:56;;;;;;;1.13;1.00;;;6.20;98.10;;;;;;2105600;28;20052;-74
2020/12/27 01:38:58;;;;;;;1.27;1.20;;;6.20;97.90;;;;;;2105737;28;20107;-74
2020/12/27 01:39:59;;;;;;;1.00;1.00;;;6.20;97.70;;;;;;2104974;28;20024;-74
2020/12/27 01:41:01;;;;;;;1.20;1.10;;;6.20;97.90;;;;;;2104974;28;20468;-75
2020/12/27 01:42:01;;;;;;;1.20;1.00;;;6.20;97.90;;;;;;2105359;28;20031;-74
2020/12/27 01:43:02;;;;;;;1.58;1.10;;;6.20;97.90;;;;;;2096215;28;20039;-75
2020/12/27 01:44:11;;;;;;;1.63;1.10;;;6.20;97.80;;;;;;2105165;28;20032;-75
2020/12/27 01:45:12;;;;;;;1.23;1.00;;;6.20;97.70;;;;;;2105707;28;20499;-74
2020/12/27 01:46:12;;;;;;;1.80;1.27;;;6.10;97.90;;;;;;2105565;28;20280;-75
2020/12/27 01:47:22;;;;;;;1.05;1.00;;;6.20;98.00;;;;;;2105368;28;20102;-74
2020/12/27 01:48:23;;;;;;;1.27;1.17;;;6.20;97.70;;;;;;2105175;28;20027;-75
2020/12/27 01:49:24;;;;;;;2.20;1.00;;;6.10;98.00;;;;;;2096650;28;20469;-74
2020/12/27 01:50:25;;;;;;;0.88;0.88;;;6.10;98.00;;;;;;2104886;28;20017;-73
2020/12/27 01:51:25;;;;;;;1.10;1.02;;;6.10;98.10;;;;;;2105622;28;20047;-75
2020/12/27 01:52:27;;;;;;;1.30;1.20;;;6.20;98.10;;;;;;2105682;28;20101;-74
2020/12/27 01:53:27;;;;;;;1.63;1.00;;;6.20;98.00;;;;;;2105032;28;20077;-73
2020/12/27 01:54:28;;;;;;;1.10;1.00;;;6.20;98.00;;;;;;2105647;28;20046;-74
2020/12/27 01:55:35;;;;;;;1.25;0.90;;;6.10;98.00;;;;;;2105702;28;20503;-74
2020/12/27 01:56:41;;;;;;;1.55;1.00;;;6.10;98.00;;;;;;2105629;28;20036;-73
2020/12/27 01:57:53;;;;;;;1.08;1.00;;;6.20;98.00;;;;;;2104519;28;20439;-73
2020/12/27 01:58:59;;;;;;;0.90;0.90;;;6.10;97.50;;;;;;2105260;28;20062;-73
2020/12/27 01:59:59;;;;;;;1.42;0.90;;;6.10;97.90;;;;;;2104795;28;20020;-74
2020/12/27 02:01:00;;;;;;;0.80;0.80;;;6.10;98.10;;;;;;2097123;28;20039;-74
2020/12/27 02:02:02;;;;;;;1.15;1.02;;;6.10;98.00;;;;;;2105152;28;20408;-75
2020/12/27 02:03:05;;;;;;;1.15;0.90;;;6.20;97.90;;;;;;2105484;28;20246;-74
2020/12/27 02:04:06;;;;;;;1.02;0.93;;;6.10;97.90;;;;;;2105346;28;20103;-74
2020/12/27 02:05:06;;;;;;;0.80;0.80;;;6.20;97.90;;;;;;2105395;28;20017;-74
2020/12/27 02:06:07;;;;;;;1.40;1.00;;;6.20;97.90;;;;;;2105268;28;20020;-74
2020/12/27 02:07:08;;;;;;;1.33;0.93;;;6.20;98.00;;;;;;2105432;28;20101;-73
2020/12/27 02:08:11;;;;;;;1.08;0.90;;;6.20;97.90;;;;;;2105444;28;20073;-73
2020/12/27 02:09:12;;;;;;;1.00;1.00;;;6.20;97.90;;;;;;2105594;28;20048;-75
2020/12/27 02:10:13;;;;;;;1.23;1.00;;;6.20;97.80;;;;;;2105355;28;20012;-73
2020/12/27 02:11:13;;;;;;;1.15;0.90;;;6.20;97.80;;;;;;2104719;28;20549;-74
2020/12/27 02:12:15;;;;;;;1.70;0.90;;;6.20;97.80;;;;;;2104816;28;20617;-74
2020/12/27 02:13:16;;;;;;;0.80;0.80;;;6.20;97.90;;;;;;2104504;28;20528;-74
2020/12/27 02:14:17;;;;;;;1.30;1.20;;;6.20;97.80;;;;;;2104822;28;20020;-73
2020/12/27 02:15:17;;;;;;;1.30;1.02;;;6.20;97.70;;;;;;2101468;28;20758;-74
2020/12/27 02:16:20;;;;;;;1.45;0.80;;;6.20;97.80;;;;;;2104841;28;20012;-73
2020/12/27 02:17:21;;;;;;;1.50;0.82;;;6.20;97.60;;;;;;2105106;28;20430;-73
2020/12/27 02:18:22;;;;;;;1.50;0.80;;;6.20;97.70;;;;;;2105316;28;20046;-74
2020/12/27 02:19:22;;;;;;;0.73;0.73;;;6.20;97.80;;;;;;2105307;28;20491;-73
2020/12/27 02:20:23;;;;;;;0.70;0.70;;;6.20;97.80;;;;;;2105026;28;20066;-74
2020/12/27 02:21:24;;;;;;;0.82;0.82;;;6.20;97.70;;;;;;2104775;28;20073;-75
2020/12/27 02:22:24;;;;;;;1.15;0.90;;;6.20;97.60;;;;;;2104780;28;20020;-75
2020/12/27 02:23:25;;;;;;;1.33;0.82;;;6.20;97.50;;;;;;2104220;28;20401;-76
2020/12/27 02:24:25;;;;;;;1.67;0.88;;;6.20;97.50;;;;;;2104956;28;20051;-74
2020/12/27 02:25:26;;;;;;;2.88;1.35;;;6.20;97.50;;;;;;2087819;28;20504;-74
2020/12/27 02:26:27;;;;;;;1.08;0.75;;;6.20;97.60;;;;;;2088183;28;20394;-74
2020/12/27 02:27:31;;;;;;;1.00;1.00;;;6.20;97.60;;;;;;2104354;28;20548;-73
2020/12/27 02:28:33;;;;;;;0.90;0.90;;;6.20;97.60;;;;;;2104908;28;20099;-73
2020/12/27 02:29:36;;;;;;;0.70;0.70;;;6.20;97.60;;;;;;2104851;28;20099;-74
2020/12/27 02:30:36;;;;;;;1.13;0.77;;;6.20;97.50;;;;;;2105187;28;20073;-74
2020/12/27 02:31:37;;;;;;;0.80;0.80;;;6.20;97.50;;;;;;2104759;28;20082;-73
2020/12/27 02:32:38;;;;;;;0.80;0.80;;;6.20;97.40;;;;;;2095985;28;20024;-74
2020/12/27 02:33:39;;;;;;;1.10;1.00;;;6.20;97.30;;;;;;2103552;28;20016;-73
2020/12/27 02:34:39;;;;;;;1.40;1.00;;;6.20;97.30;;;;;;2105299;28;20024;-74
2020/12/27 02:35:40;;;;;;;2.25;1.00;;;6.20;97.20;;;;;;2105344;28;20107;-74
2020/12/27 02:36:40;;;;;;;1.17;1.08;;;6.30;97.40;;;;;;2105096;28;20312;-73
2020/12/27 02:37:41;;;;;;;0.88;0.82;;;6.20;97.30;;;;;;2105493;28;20027;-74
2020/12/27 02:38:42;;;;;;;0.90;0.90;;;6.20;97.30;;;;;;2104637;28;20058;-74
2020/12/27 02:39:42;;;;;;;2.03;1.10;;;6.20;97.20;;;;;;2095409;28;20066;-74
2020/12/27 02:40:44;;;;;;;1.10;0.90;;;6.20;97.40;;;;;;2104619;28;20016;-75
2020/12/27 02:41:48;;;;;;;1.60;0.77;;;6.20;97.30;;;;;;2105182;28;20027;-74
2020/12/27 02:42:48;;;;;;;0.93;0.88;;;6.20;97.20;;;;;;2104575;28;20047;-75
2020/12/27 02:43:49;;;;;;;0.70;0.60;;;6.20;97.30;;;;;;2104474;28;20031;-76
2020/12/27 02:46:03;;;;;;;0.80;0.80;;;6.20;97.20;;;;;;2104731;28;20031;-74
2020/12/27 02:47:03;;;;;;;1.23;0.70;;;6.20;97.20;;;;;;2104909;28;20031;-74
2020/12/27 02:48:04;;;;;;;1.10;1.00;;;6.20;97.40;;;;;;2105289;28;20028;-74
2020/12/27 02:49:04;;;;;;;1.25;0.95;;;6.20;97.30;;;;;;2104452;28;20242;-74
2020/12/27 02:50:08;;;;;;;0.77;0.77;;;6.20;97.20;;;;;;2104365;28;20070;-74
2020/12/27 02:51:10;;;;;;;0.80;0.80;;;6.20;97.30;;;;;;2105170;28;20035;-75
2020/12/27 02:52:11;;;;;;;0.88;0.88;;;6.20;97.20;;;;;;2105247;28;20365;-74
2020/12/27 02:53:11;;;;;;;0.82;0.80;;;6.20;97.30;;;;;;2103940;28;20081;-74
2020/12/27 02:54:12;;;;;;;0.93;0.90;;;6.20;97.20;;;;;;2096223;28;20066;-74
2020/12/27 02:55:13;;;;;;;1.45;1.02;;;6.20;97.30;;;;;;2104514;28;20361;-75
2020/12/27 02:56:13;;;;;;;0.88;0.70;;;6.20;97.30;;;;;;2104446;28;20024;-74
2020/12/27 02:57:14;;;;;;;0.70;0.70;;;6.20;97.20;;;;;;2104431;28;20039;-75
2020/12/27 02:58:14;;;;;;;1.15;0.88;;;6.30;97.20;;;;;;2105066;28;20024;-74
2020/12/27 02:59:15;;;;;;;1.10;1.00;;;6.30;97.10;;;;;;2104704;28;20102;-74
2020/12/27 03:00:16;;;;;;;0.90;0.90;;;6.30;97.20;;;;;;2104278;28;20028;-74
2020/12/27 03:01:17;;;;;;;1.13;0.95;;;6.30;97.10;;;;;;2105021;28;20040;-74
2020/12/27 03:02:17;;;;;;;0.70;0.70;;;6.30;97.10;;;;;;2105740;28;20043;-74
2020/12/27 03:03:18;;;;;;;0.80;0.80;;;6.30;97.10;;;;;;2105319;28;20266;-74
2020/12/27 03:04:18;;;;;;;0.70;0.63;;;6.30;97.20;;;;;;2105734;28;20073;-74
2020/12/27 03:05:19;;;;;;;1.10;1.00;;;6.30;97.10;;;;;;2105434;28;20050;-73
2020/12/27 03:06:19;;;;;;;0.80;0.68;;;6.30;97.00;;;;;;2105698;28;20433;-75
2020/12/27 03:07:20;;;;;;;0.82;0.80;;;6.30;97.10;;;;;;2105501;28;20590;-74
2020/12/27 03:08:20;;;;;;;1.13;0.70;;;6.30;96.90;;;;;;2105669;28;20024;-74
2020/12/27 03:09:21;;;;;;;0.60;0.60;;;6.30;97.00;;;;;;2105489;28;20028;-74
2020/12/27 03:10:21;;;;;;;1.55;0.80;;;6.30;96.90;;;;;;2105657;28;20028;-74
2020/12/27 03:11:26;;;;;;;1.20;0.70;;;6.30;96.70;;;;;;2105576;28;20052;-74
2020/12/27 03:12:26;;;;;;;0.98;0.98;;;6.30;96.90;;;;;;2105576;28;20017;-74
2020/12/27 03:13:28;;;;;;;1.13;0.80;;;6.30;96.70;;;;;;2105450;28;20384;-73
2020/12/27 03:14:28;;;;;;;1.77;0.60;;;6.30;96.70;;;;;;2105612;28;20021;-73
2020/12/27 03:15:29;;;;;;;0.60;0.60;;;6.30;96.70;;;;;;2105290;28;20030;-74
2020/12/27 03:16:29;;;;;;;0.80;0.80;;;6.30;96.60;;;;;;2105752;28;20056;-75
2020/12/27 03:17:30;;;;;;;1.55;0.95;;;6.30;96.70;;;;;;2105230;28;20157;-75
2020/12/27 03:18:32;;;;;;;1.00;0.90;;;6.30;96.70;;;;;;2105601;28;20073;-74
2020/12/27 03:19:32;;;;;;;0.80;0.80;;;6.30;96.70;;;;;;2105731;28;20045;-74
2020/12/27 03:20:33;;;;;;;0.77;0.70;;;6.30;96.60;;;;;;2105470;28;20055;-73
2020/12/27 03:21:33;;;;;;;4.13;0.82;;;6.40;96.60;;;;;;2105560;28;20020;-74
2020/12/27 03:22:34;;;;;;;1.08;0.90;;;6.40;96.60;;;;;;2105617;28;20047;-74
2020/12/27 03:23:35;;;;;;;0.70;0.60;;;6.40;96.60;;;;;;2105229;28;20034;-74
2020/12/27 03:24:35;;;;;;;0.70;0.70;;;6.40;96.60;;;;;;2105540;28;20031;-74
2020/12/27 03:25:36;;;;;;;0.60;0.60;;;6.40;96.50;;;;;;2105592;28;20040;-73
2020/12/27 03:26:36;;;;;;;1.23;0.70;;;6.40;96.60;;;;;;2105509;28;20059;-74
2020/12/27 03:27:37;;;;;;;2.30;0.52;;;6.40;96.40;;;;;;2104889;28;20051;-74
2020/12/27 03:28:38;;;;;;;1.90;0.60;;;6.40;96.40;;;;;;2096506;28;20480;-75
2020/12/27 03:29:38;;;;;;;0.60;0.60;;;6.40;96.40;;;;;;2105009;28;20436;-74
2020/12/27 03:30:39;;;;;;;0.68;0.68;;;6.40;96.40;;;;;;2105460;28;20031;-74
2020/12/27 03:31:39;;;;;;;0.65;0.55;;;6.40;96.20;;;;;;2105631;28;20028;-75
2020/12/27 03:32:40;;;;;;;0.73;0.73;;;6.40;96.30;;;;;;2104718;28;20519;-74
2020/12/27 03:33:41;;;;;;;0.73;0.70;;;6.40;96.10;;;;;;2104577;28;20028;-74
2020/12/27 03:34:41;;;;;;;0.77;0.75;;;6.40;96.20;;;;;;2105557;28;20536;-73
2020/12/27 03:35:42;;;;;;;1.83;0.70;;;6.40;96.30;;;;;;2105553;28;20049;-73
2020/12/27 03:36:42;;;;;;;0.50;0.50;;;6.40;96.00;;;;;;2104751;28;20043;-74
2020/12/27 03:37:43;;;;;;;0.65;0.65;;;6.40;96.00;;;;;;2104939;28;20093;-73
2020/12/27 03:38:43;;;;;;;0.68;0.68;;;6.40;96.10;;;;;;2105438;28;20031;-74
2020/12/27 03:39:44;;;;;;;0.77;0.75;;;6.40;96.10;;;;;;2105344;28;20016;-73
2020/12/27 03:40:44;;;;;;;0.65;0.50;;;6.40;96.10;;;;;;2105553;28;20023;-73
2020/12/27 03:41:45;;;;;;;0.70;0.70;;;6.40;96.00;;;;;;2105441;28;20032;-74
2020/12/27 03:42:46;;;;;;;0.70;0.70;;;6.40;95.70;;;;;;2105386;28;20039;-74
2020/12/27 03:43:46;;;;;;;0.70;0.70;;;6.40;95.90;;;;;;2105543;28;20027;-74
2020/12/27 03:44:47;;;;;;;0.57;0.57;;;6.40;95.90;;;;;;2105747;28;20031;-74
2020/12/27 03:45:47;;;;;;;0.60;0.60;;;6.40;95.80;;;;;;2106825;28;20032;-73
2020/12/27 03:46:48;;;;;;;1.33;0.60;;;6.40;96.00;;;;;;2106892;28;20146;-73
2020/12/27 03:47:48;;;;;;;0.50;0.50;;;6.40;95.90;;;;;;2106400;28;20038;-74
2020/12/27 03:48:49;;;;;;;0.70;0.70;;;6.40;96.00;;;;;;2107049;28;20035;-74
2020/12/27 03:49:50;;;;;;;0.82;0.60;;;6.40;96.10;;;;;;2107242;28;20036;-74
2020/12/27 03:50:50;;;;;;;0.63;0.63;;;6.40;95.90;;;;;;2107090;28;20031;-74
2020/12/27 03:51:51;;;;;;;0.63;0.63;;;6.40;95.80;;;;;;2107185;28;20395;-74
2020/12/27 03:52:51;;;;;;;1.00;0.90;;;6.40;95.80;;;;;;2107277;28;20036;-74
2020/12/27 03:53:52;;;;;;;0.80;0.80;;;6.50;95.80;;;;;;2106246;28;20528;-74
2020/12/27 03:54:52;;;;;;;1.10;0.60;;;6.50;95.80;;;;;;2106892;28;20476;-74
2020/12/27 03:55:53;;;;;;;1.30;0.70;;;6.40;95.80;;;;;;2107061;28;20472;-73
2020/12/27 03:56:53;;;;;;;1.02;0.70;;;6.40;95.80;;;;;;2106866;28;20021;-74
2020/12/27 03:57:54;;;;;;;0.63;0.60;;;6.40;95.70;;;;;;2107083;28;20464;-74
2020/12/27 03:58:54;;;;;;;0.60;0.60;;;6.40;95.80;;;;;;2107108;28;20273;-73
2020/12/27 03:59:55;;;;;;;1.60;0.60;;;6.40;95.80;;;;;;2106695;28;20035;-73
2020/12/27 04:00:56;;;;;;;0.85;0.57;;;6.40;95.70;;;;;;2107394;28;20092;-73
2020/12/27 04:01:56;;;;;;;1.60;0.60;;;6.40;95.70;;;;;;2106918;28;20020;-74
2020/12/27 04:02:57;;;;;;;0.70;0.70;;;6.50;95.80;;;;;;2106442;28;20182;-74
2020/12/27 04:03:58;;;;;;;0.70;0.70;;;6.50;95.70;;;;;;2105730;28;20055;-74
2020/12/27 04:04:58;;;;;;;1.73;0.75;;;6.50;95.70;;;;;;2097676;28;20028;-75
2020/12/27 04:05:59;;;;;;;0.60;0.60;;;6.50;95.70;;;;;;2106018;28;20232;-75
2020/12/27 04:06:59;;;;;;;1.60;0.68;;;6.50;95.80;;;;;;2106262;28;20021;-74
2020/12/27 04:08:00;;;;;;;2.17;0.57;;;6.50;95.80;;;;;;2106597;28;20092;-74
2020/12/27 04:09:00;;;;;;;0.73;0.70;;;6.50;95.80;;;;;;2106696;28;20414;-75
2020/12/27 04:10:01;;;;;;;0.63;0.63;;;6.40;95.80;;;;;;2106417;28;20028;-73
2020/12/27 04:11:02;;;;;;;0.82;0.80;;;6.50;95.80;;;;;;2106159;28;20032;-74
2020/12/27 04:12:02;;;;;;;1.42;0.95;;;6.50;95.90;;;;;;2106404;28;20069;-74
2020/12/27 04:13:03;;;;;;;0.70;0.70;;;6.50;95.80;;;;;;2096941;28;20409;-74
2020/12/27 04:14:04;;;;;;;0.98;0.90;;;6.50;95.80;;;;;;2097572;28;20071;-73
2020/12/27 04:15:05;;;;;;;0.77;0.70;;;6.50;95.90;;;;;;2106482;28;20016;-75
2020/12/27 04:16:05;;;;;;;1.70;0.73;;;6.50;95.80;;;;;;2106336;28;20388;-74
2020/12/27 04:17:06;;;;;;;0.95;0.90;;;6.50;95.80;;;;;;2106769;28;20048;-73
2020/12/27 04:18:07;;;;;;;1.23;0.70;;;6.50;95.80;;;;;;2106140;28;20426;-74
2020/12/27 04:19:07;;;;;;;8.63;1.38;;;6.50;95.80;;;;;;2106517;28;20024;-75
2020/12/27 04:20:08;;;;;;;0.75;0.52;;;6.50;95.70;;;;;;2097204;28;20066;-73
2020/12/27 04:21:13;;;;;;;0.70;0.70;;;6.50;95.80;;;;;;2097482;28;20088;-75
2020/12/27 04:22:13;;;;;;;1.15;0.75;;;6.50;95.40;;;;;;2105553;28;20018;-74
2020/12/27 04:23:14;;;;;;;1.02;0.93;;;6.40;95.80;;;;;;2105666;28;20024;-74
2020/12/27 04:24:16;;;;;;;0.50;0.50;;;6.50;95.60;;;;;;2106249;28;20016;-75
2020/12/27 04:25:17;;;;;;;1.70;1.08;;;6.50;95.70;;;;;;2106336;28;20024;-73
2020/12/27 04:26:18;;;;;;;0.55;0.55;;;6.40;95.60;;;;;;2105693;28;20421;-73
2020/12/27 04:27:18;;;;;;;0.63;0.50;;;6.50;95.60;;;;;;2105518;28;20035;-74
2020/12/27 04:28:19;;;;;;;1.08;0.85;;;6.50;95.70;;;;;;2106470;28;20019;-74
2020/12/27 04:29:19;;;;;;;0.68;0.68;;;6.40;95.70;;;;;;2105747;28;20464;-73
2020/12/27 04:30:20;;;;;;;0.73;0.73;;;6.50;95.70;;;;;;2105714;28;20425;-74
2020/12/27 04:31:20;;;;;;;0.40;0.40;;;6.50;95.70;;;;;;2106519;28;20060;-74
2020/12/27 04:32:24;;;;;;;0.75;0.55;;;6.50;95.80;;;;;;2106451;28;20073;-74
2020/12/27 04:33:24;;;;;;;1.98;0.70;;;6.50;95.80;;;;;;2105247;28;20023;-74
2020/12/27 04:34:25;;;;;;;1.67;0.52;;;6.40;95.80;;;;;;2105806;28;20016;-73
2020/12/27 04:35:25;;;;;;;0.75;0.50;;;6.50;95.80;;;;;;2106063;28;20024;-75
2020/12/27 04:36:26;;;;;;;0.60;0.60;;;6.50;95.70;;;;;;2106384;28;20031;-73
2020/12/27 04:37:27;;;;;;;0.60;0.60;;;6.50;95.70;;;;;;2106180;28;20024;-74
2020/12/27 04:38:28;;;;;;;0.55;0.55;;;6.50;95.80;;;;;;2106354;28;20030;-75
2020/12/27 04:39:28;;;;;;;1.63;0.68;;;6.50;95.90;;;;;;2106003;28;20065;-74
2020/12/27 04:40:29;;;;;;;1.95;0.80;;;6.50;95.90;;;;;;2088791;28;20115;-74
2020/12/27 04:41:29;;;;;;;1.05;0.95;;;6.50;95.70;;;;;;2088851;28;20251;-74
2020/12/27 04:42:30;;;;;;;0.52;0.52;;;6.50;95.80;;;;;;2105612;28;20174;-73
2020/12/27 04:43:32;;;;;;;0.90;0.85;;;6.50;96.00;;;;;;2105711;28;20028;-75
2020/12/27 04:44:34;;;;;;;0.50;0.50;;;6.50;95.90;;;;;;2097054;28;20039;-74
2020/12/27 04:45:36;;;;;;;0.57;0.57;;;6.50;95.80;;;;;;2097649;28;20020;-74
2020/12/27 04:46:39;;;;;;;0.65;0.60;;;6.50;95.80;;;;;;2106237;28;20026;-73
2020/12/27 04:47:40;;;;;;;0.80;0.80;;;6.50;95.90;;;;;;2105596;28;20073;-75
2020/12/27 04:48:42;;;;;;;0.50;0.50;;;6.50;95.90;;;;;;2105704;28;20106;-74
2020/12/27 04:49:43;;;;;;;0.50;0.45;;;6.50;95.90;;;;;;2106238;28;20217;-75
2020/12/27 04:50:45;;;;;;;0.77;0.43;;;6.50;95.80;;;;;;2105373;28;20027;-74
2020/12/27 04:51:47;;;;;;;0.55;0.55;;;6.50;95.80;;;;;;2097436;28;20056;-74
2020/12/27 04:52:47;;;;;;;0.85;0.60;;;6.50;95.70;;;;;;2097176;28;20025;-74
2020/12/27 04:53:48;;;;;;;0.82;0.52;;;6.50;95.80;;;;;;2096716;28;20064;-74
2020/12/27 04:54:50;;;;;;;0.50;0.50;;;6.50;95.60;;;;;;2105631;28;20136;-74
2020/12/27 04:55:53;;;;;;;4.05;0.50;;;6.50;95.70;;;;;;2105473;28;20024;-74
2020/12/27 04:56:55;;;;;;;0.85;0.60;;;6.50;95.60;;;;;;2105716;28;20380;-75
2020/12/27 04:57:58;;;;;;;1.10;0.50;;;6.50;95.60;;;;;;2105864;28;20052;-74
2020/12/27 04:58:58;;;;;;;1.08;0.52;;;6.50;95.70;;;;;;2106040;28;20024;-74
2020/12/27 05:00:05;;;;;;;1.75;0.60;;;6.50;95.60;;;;;;2105696;28;20020;-74
2020/12/27 05:01:08;;;;;;;0.80;0.50;;;6.50;95.40;;;;;;2096863;28;20099;-74
2020/12/27 05:02:09;;;;;;;1.58;0.68;;;6.50;95.60;;;;;;2097892;28;20025;-74
2020/12/27 05:03:10;;;;;;;1.23;0.65;;;6.50;95.50;;;;;;2105608;28;20030;-74
2020/12/27 05:04:11;;;;;;;0.57;0.40;;;6.50;95.60;;;;;;2106049;28;20050;-74
2020/12/27 05:05:14;;;;;;;0.80;0.65;;;6.50;95.60;;;;;;2097320;28;20108;-74
2020/12/27 05:06:16;;;;;;;0.50;0.50;;;6.50;95.70;;;;;;2097536;28;20050;-75
2020/12/27 05:07:18;;;;;;;1.13;0.65;;;6.50;95.50;;;;;;2105849;28;20046;-74
2020/12/27 05:08:19;;;;;;;0.73;0.50;;;6.50;95.50;;;;;;2106060;28;20066;-73
2020/12/27 05:09:30;;;;;;;1.35;0.68;;;6.50;95.40;;;;;;2105542;28;20064;-74
2020/12/27 05:10:30;;;;;;;0.40;0.40;;;6.50;95.20;;;;;;2105197;28;20032;-73
2020/12/27 05:11:31;;;;;;;0.68;0.68;;;6.50;95.50;;;;;;2105348;28;20063;-75
2020/12/27 05:12:31;;;;;;;0.40;0.40;;;6.50;95.40;;;;;;2105059;28;20028;-74
2020/12/27 05:13:32;;;;;;;0.55;0.55;;;6.50;94.90;;;;;;2105446;28;20039;-74
2020/12/27 05:14:33;;;;;;;0.47;0.47;;;6.50;95.40;;;;;;2105817;28;20031;-74
2020/12/27 05:15:35;;;;;;;0.60;0.60;;;6.50;95.50;;;;;;2106180;28;20074;-73
2020/12/27 05:16:35;;;;;;;1.27;0.50;;;6.60;95.40;;;;;;2105813;28;20027;-75
2020/12/27 05:17:36;;;;;;;1.13;0.60;;;6.50;95.40;;;;;;2105807;28;20020;-74
2020/12/27 05:18:37;;;;;;;0.50;0.50;;;6.60;95.50;;;;;;2105840;28;20145;-74
2020/12/27 05:19:37;;;;;;;0.63;0.63;;;6.60;95.60;;;;;;2105844;28;20057;-75
2020/12/27 05:20:41;;;;;;;1.02;0.60;;;6.50;95.30;;;;;;2105015;28;20016;-74
2020/12/27 05:21:41;;;;;;;0.55;0.50;;;6.60;95.40;;;;;;2105425;28;20031;-74
2020/12/27 05:22:42;;;;;;;0.70;0.60;;;6.60;95.40;;;;;;2105837;28;20040;-75
2020/12/27 05:23:43;;;;;;;0.65;0.50;;;6.60;95.50;;;;;;2105593;28;20024;-74